createdAt,value
2019-05-11T00:02:21.061Z,2.73
2019-05-11T00:04:47.241Z,3.07
2019-05-11T00:07:13.378Z,2.77
2019-05-11T00:09:56.555Z,2.73
2019-05-11T00:12:07.677Z,2.77
2019-05-11T00:14:33.880Z,2.17
2019-05-11T00:17:00.029Z,2.43
2019-05-11T00:19:26.532Z,2.40
2019-05-11T00:21:52.692Z,1.87
2019-05-11T00:24:19.122Z,2.13
2019-05-11T00:26:45.271Z,2.20
2019-05-11T00:29:11.488Z,2.17
2019-05-11T00:31:37.689Z,2.40
2019-05-11T00:34:03.884Z,2.30
2019-05-11T00:36:30.078Z,2.10
2019-05-11T00:38:56.247Z,2.17
2019-05-11T00:41:22.517Z,2.20
2019-05-11T00:43:48.723Z,2.20
2019-05-11T00:46:14.883Z,2.20
2019-05-11T00:48:41.314Z,2.23
2019-05-11T00:51:07.461Z,2.43
2019-05-11T00:53:33.921Z,2.77
2019-05-11T00:56:00.076Z,2.70
2019-05-11T00:58:26.229Z,2.67
2019-05-11T01:00:52.383Z,2.90
2019-05-11T01:03:18.597Z,2.60
2019-05-11T01:05:44.779Z,2.63
2019-05-11T01:08:10.897Z,2.67
2019-05-11T01:10:42.039Z,2.43
2019-05-11T01:13:05.109Z,2.90
2019-05-11T01:15:31.290Z,2.63
2019-05-11T01:17:57.480Z,2.53
2019-05-11T01:20:23.657Z,2.90
2019-05-11T01:22:50.107Z,2.60
2019-05-11T01:25:16.288Z,2.80
2019-05-11T01:27:42.473Z,2.70
2019-05-11T01:30:09.129Z,2.83
2019-05-11T01:32:35.560Z,2.70
2019-05-11T01:35:07.797Z,3.17
2019-05-11T01:37:33.941Z,3.00
2019-05-11T01:40:00.144Z,2.83
2019-05-11T01:42:26.335Z,3.00
2019-05-11T01:44:52.530Z,2.77
2019-05-11T01:47:18.662Z,2.37
2019-05-11T01:49:44.833Z,2.60
2019-05-11T01:52:10.972Z,2.67
2019-05-11T01:54:37.157Z,2.37
2019-05-11T01:57:03.297Z,2.80
2019-05-11T01:59:29.490Z,2.63
2019-05-11T02:01:55.750Z,2.80
2019-05-11T02:04:21.909Z,2.47
2019-05-11T02:06:48.072Z,2.83
2019-05-11T02:09:14.206Z,2.77
2019-05-11T02:11:40.405Z,2.53
2019-05-11T02:14:06.557Z,3.03
2019-05-11T02:16:33.022Z,2.73
2019-05-11T02:19:00.849Z,2.43
2019-05-11T02:21:27.009Z,2.63
2019-05-11T02:23:53.154Z,2.80
2019-05-11T02:26:19.842Z,2.73
2019-05-11T02:28:45.987Z,2.63
2019-05-11T02:31:18.871Z,3.00
2019-05-11T02:33:45.011Z,2.70
2019-05-11T02:36:11.165Z,2.40
2019-05-11T02:38:37.388Z,2.70
2019-05-11T02:41:03.806Z,2.53
2019-05-11T02:43:30.130Z,2.60
2019-05-11T02:45:56.327Z,2.30
2019-05-11T02:48:22.476Z,2.30
2019-05-11T02:50:49.145Z,2.27
2019-05-11T02:53:35.903Z,2.20
2019-05-11T02:56:02.284Z,2.00
2019-05-11T02:58:28.682Z,2.67
2019-05-11T03:00:54.841Z,2.37
2019-05-11T03:03:20.969Z,2.70
2019-05-11T03:05:47.144Z,2.40
2019-05-11T03:08:13.281Z,2.60
2019-05-11T03:10:39.467Z,2.50
2019-05-11T03:13:05.618Z,2.00
2019-05-11T03:15:31.764Z,2.23
2019-05-11T03:17:58.004Z,2.33
2019-05-11T03:20:24.166Z,2.30
2019-05-11T03:22:50.337Z,2.37
2019-05-11T03:25:16.720Z,2.43
2019-05-11T03:27:42.914Z,2.53
2019-05-11T03:30:09.231Z,2.33
2019-05-11T03:32:35.434Z,2.10
2019-05-11T03:35:01.734Z,2.47
2019-05-11T03:37:28.200Z,2.17
2019-05-11T03:39:54.463Z,2.37
2019-05-11T03:42:20.626Z,2.03
2019-05-11T03:44:46.804Z,1.93
2019-05-11T03:47:12.965Z,2.30
2019-05-11T03:49:39.127Z,2.23
2019-05-11T03:52:05.360Z,2.00
2019-05-11T03:54:31.502Z,2.10
2019-05-11T03:56:57.746Z,1.80
2019-05-11T03:59:24.098Z,1.90
2019-05-11T04:01:50.379Z,1.90
2019-05-11T04:04:16.964Z,1.87
2019-05-11T04:06:43.358Z,2.13
2019-05-11T04:09:09.494Z,2.20
2019-05-11T04:11:35.707Z,1.90
2019-05-11T04:14:01.860Z,2.10
2019-05-11T04:16:27.994Z,2.10
2019-05-11T04:18:54.278Z,1.90
2019-05-11T04:21:20.423Z,2.23
2019-05-11T04:23:46.824Z,1.87
2019-05-11T04:26:12.968Z,2.23
2019-05-11T04:28:39.520Z,1.93
2019-05-11T04:31:05.658Z,2.23
2019-05-11T04:33:33.143Z,1.97
2019-05-11T04:35:59.695Z,1.80
2019-05-11T04:38:25.903Z,2.00
2019-05-11T04:40:52.050Z,1.67
2019-05-11T04:43:18.256Z,1.73
2019-05-11T04:45:44.406Z,2.20
2019-05-11T04:48:10.617Z,2.00
2019-05-11T04:50:36.782Z,2.00
2019-05-11T04:53:03.171Z,2.10
2019-05-11T04:55:29.812Z,2.17
2019-05-11T04:57:56.034Z,2.00
2019-05-11T05:00:24.315Z,1.83
2019-05-11T05:02:50.532Z,2.10
2019-05-11T05:05:16.715Z,1.90
2019-05-11T05:07:48.913Z,1.93
2019-05-11T05:10:14.032Z,2.10
2019-05-11T05:12:39.290Z,2.00
2019-05-11T05:15:05.651Z,1.90
2019-05-11T05:17:31.799Z,2.03
2019-05-11T05:19:58.059Z,1.70
2019-05-11T05:22:27.745Z,1.53
2019-05-11T05:24:52.344Z,2.10
2019-05-11T05:27:18.586Z,1.87
2019-05-11T05:29:44.784Z,1.90
2019-05-11T05:32:11.261Z,1.90
2019-05-11T05:34:37.464Z,2.00
2019-05-11T05:37:03.602Z,2.20
2019-05-11T05:39:29.818Z,1.83
2019-05-11T05:41:57.512Z,1.90
2019-05-11T05:44:27.922Z,1.80
2019-05-11T05:46:54.081Z,1.90
2019-05-11T05:49:20.326Z,1.93
2019-05-11T05:51:46.472Z,2.00
2019-05-11T05:54:12.991Z,2.07
2019-05-11T05:59:09.039Z,2.07
2019-05-11T06:01:35.190Z,2.20
2019-05-11T06:04:08.078Z,1.97
2019-05-11T06:06:34.256Z,2.10
2019-05-11T06:09:07.699Z,2.27
2019-05-11T06:11:34.184Z,2.10
2019-05-11T06:14:00.344Z,2.10
2019-05-11T06:16:26.546Z,2.23
2019-05-11T06:18:58.490Z,2.13
2019-05-11T06:21:24.697Z,1.83
2019-05-11T06:23:57.606Z,2.13
2019-05-11T06:26:23.760Z,2.40
2019-05-11T06:28:49.981Z,2.13
2019-05-11T06:31:16.117Z,1.73
2019-05-11T06:33:42.327Z,2.13
2019-05-11T06:36:08.764Z,1.90
2019-05-11T06:38:35.086Z,2.13
2019-05-11T06:41:01.275Z,1.90
2019-05-11T06:43:27.429Z,1.80
2019-05-11T06:45:53.665Z,2.40
2019-05-11T06:48:19.824Z,2.33
2019-05-11T06:50:46.023Z,2.23
2019-05-11T06:53:12.171Z,2.37
2019-05-11T06:55:38.396Z,2.10
2019-05-11T06:58:04.929Z,2.27
2019-05-11T07:00:31.137Z,2.23
2019-05-11T07:02:57.658Z,2.07
2019-05-11T07:05:24.192Z,2.07
2019-05-11T07:07:50.331Z,2.00
2019-05-11T07:10:16.541Z,1.93
2019-05-11T07:12:42.683Z,1.73
2019-05-11T07:15:09.394Z,1.70
2019-05-11T07:17:35.563Z,2.17
2019-05-11T07:20:06.322Z,2.20
2019-05-11T07:22:32.490Z,1.80
2019-05-11T07:24:58.716Z,2.03
2019-05-11T07:27:24.852Z,1.87
2019-05-11T07:29:51.034Z,2.03
2019-05-11T07:32:24.986Z,2.10
2019-05-11T07:34:45.613Z,1.97
2019-05-11T07:37:12.003Z,1.93
2019-05-11T07:39:38.464Z,1.60
2019-05-11T07:42:07.881Z,2.30
2019-05-11T07:44:38.553Z,2.13
2019-05-11T07:47:02.181Z,2.00
2019-05-11T07:49:29.241Z,1.93
2019-05-11T07:51:55.588Z,2.30
2019-05-11T07:54:21.741Z,2.10
2019-05-11T07:56:48.070Z,2.07
2019-05-11T07:59:14.565Z,2.10
2019-05-11T08:01:40.757Z,2.00
2019-05-11T08:04:07.845Z,1.97
2019-05-11T08:06:34.206Z,2.10
2019-05-11T08:09:00.411Z,2.00
2019-05-11T08:11:30.730Z,2.10
2019-05-11T08:13:54.728Z,2.13
2019-05-11T08:16:20.904Z,2.27
2019-05-11T08:18:48.158Z,2.10
2019-05-11T08:21:14.729Z,2.10
2019-05-11T08:23:41.227Z,2.20
2019-05-11T08:26:08.503Z,2.17
2019-05-11T08:28:35.117Z,1.83
2019-05-11T08:31:01.343Z,2.53
2019-05-11T08:33:28.416Z,2.13
2019-05-11T08:35:55.150Z,2.40
2019-05-11T08:38:21.294Z,2.27
2019-05-11T08:40:48.513Z,2.40
2019-05-11T08:43:14.849Z,2.37
2019-05-11T08:45:40.981Z,2.70
2019-05-11T08:48:08.124Z,2.03
2019-05-11T08:50:34.412Z,2.47
2019-05-11T08:53:00.657Z,2.53
2019-05-11T08:55:28.898Z,2.53
2019-05-11T08:57:54.909Z,2.20
2019-05-11T09:00:21.063Z,2.17
2019-05-11T09:02:50.474Z,2.10
2019-05-11T09:05:15.316Z,2.70
2019-05-11T09:07:41.513Z,2.77
2019-05-11T09:10:08.343Z,2.60
2019-05-11T09:12:34.656Z,2.40
2019-05-11T09:15:00.806Z,3.13
2019-05-11T09:17:28.874Z,3.17
2019-05-11T09:19:55.499Z,2.47
2019-05-11T09:22:21.676Z,2.40
2019-05-11T09:24:47.957Z,2.47
2019-05-11T09:27:14.130Z,2.77
2019-05-11T09:29:40.268Z,2.53
2019-05-11T09:32:08.669Z,2.47
2019-05-11T09:34:34.547Z,2.60
2019-05-11T09:37:00.944Z,2.73
2019-05-11T09:39:28.041Z,2.27
2019-05-11T09:41:54.491Z,2.30
2019-05-11T09:44:20.724Z,2.87
2019-05-11T09:46:47.769Z,2.70
2019-05-11T09:49:14.311Z,2.50
2019-05-11T09:51:40.581Z,2.67
2019-05-11T09:54:07.841Z,2.40
2019-05-11T09:56:34.504Z,2.80
2019-05-11T09:59:00.726Z,2.47
2019-05-11T10:01:26.864Z,2.73
2019-05-11T10:03:53.127Z,2.43
2019-05-11T10:06:19.322Z,2.33
2019-05-11T10:08:45.906Z,2.47
2019-05-11T10:11:12.072Z,2.53
2019-05-11T10:13:38.644Z,2.27
2019-05-11T10:16:08.139Z,2.53
2019-05-11T10:18:33.060Z,2.30
2019-05-11T10:20:59.286Z,2.43
2019-05-11T10:23:27.737Z,2.77
2019-05-11T10:25:53.566Z,2.53
2019-05-11T10:28:19.849Z,2.33
2019-05-11T10:30:48.522Z,2.30
2019-05-11T10:33:14.354Z,2.30
2019-05-11T10:35:40.593Z,2.43
2019-05-11T10:38:09.012Z,2.60
2019-05-11T10:40:35.183Z,2.40
2019-05-11T10:43:01.341Z,2.23
2019-05-11T10:45:28.475Z,2.70
2019-05-11T10:47:58.561Z,2.30
2019-05-11T10:50:23.083Z,2.50
2019-05-11T10:52:49.236Z,2.57
2019-05-11T10:55:15.573Z,2.87
2019-05-11T10:57:41.756Z,3.27
2019-05-11T11:00:08.839Z,2.80
2019-05-11T11:02:35.359Z,2.80
2019-05-11T11:05:08.410Z,2.67
2019-05-11T11:07:35.060Z,2.33
2019-05-11T11:10:01.208Z,2.53
2019-05-11T11:12:33.983Z,2.53
2019-05-11T11:15:00.410Z,2.40
2019-05-11T11:17:28.703Z,2.33
2019-05-11T11:19:55.057Z,2.33
2019-05-11T11:22:36.207Z,2.00
2019-05-11T11:24:49.323Z,2.00
2019-05-11T11:27:15.489Z,1.97
2019-05-11T11:29:41.627Z,2.10
2019-05-11T11:32:08.079Z,2.33
2019-05-11T11:34:34.363Z,2.40
2019-05-11T11:37:00.593Z,2.10
2019-05-11T11:39:28.291Z,2.57
2019-05-11T11:41:54.734Z,1.97
2019-05-11T11:44:21.201Z,2.30
2019-05-11T11:46:54.726Z,2.20
2019-05-11T11:49:15.799Z,2.00
2019-05-11T11:51:42.247Z,2.00
2019-05-11T11:54:08.876Z,2.10
2019-05-11T11:56:37.752Z,2.23
2019-05-11T11:59:03.424Z,2.33
2019-05-11T12:01:29.681Z,2.27
2019-05-11T12:03:57.923Z,2.00
2019-05-11T12:06:24.077Z,2.00
2019-05-11T12:08:50.221Z,1.87
2019-05-11T12:11:18.618Z,2.17
2019-05-11T12:13:44.470Z,2.20
2019-05-11T12:16:10.702Z,2.03
2019-05-11T12:18:38.101Z,2.07
2019-05-11T12:21:04.422Z,2.10
2019-05-11T12:23:30.569Z,2.10
2019-05-11T12:25:58.016Z,2.43
2019-05-11T12:28:24.374Z,2.57
2019-05-11T12:30:50.537Z,2.20
2019-05-11T12:33:18.725Z,2.20
2019-05-11T12:35:44.779Z,2.40
2019-05-11T12:38:10.993Z,2.20
2019-05-11T12:40:38.947Z,2.03
2019-05-11T12:43:05.243Z,1.93
2019-05-11T12:45:31.376Z,2.27
2019-05-11T12:47:58.754Z,2.33
2019-05-11T12:50:25.239Z,2.43
2019-05-11T12:52:51.422Z,2.13
2019-05-11T12:55:18.085Z,2.23
2019-05-11T12:57:44.410Z,2.07
2019-05-11T13:00:11.163Z,2.40
2019-05-11T13:02:38.871Z,2.60
2019-05-11T13:05:08.638Z,2.37
2019-05-11T13:07:34.985Z,2.30
2019-05-11T13:10:01.212Z,2.57
2019-05-11T13:12:27.999Z,3.30
2019-05-11T13:14:54.207Z,2.70
2019-05-11T13:17:34.026Z,2.90
2019-05-11T13:19:48.600Z,2.80
2019-05-11T13:22:14.787Z,2.93
2019-05-11T13:24:40.947Z,2.87
2019-05-11T13:27:08.342Z,3.40
2019-05-11T13:29:34.723Z,3.10
2019-05-11T13:32:00.961Z,3.20
2019-05-11T13:34:31.170Z,2.93
2019-05-11T13:36:57.404Z,3.03
2019-05-11T13:39:23.831Z,3.13
2019-05-11T13:41:49.980Z,3.27
2019-05-11T13:44:18.429Z,3.23
2019-05-11T13:46:44.457Z,3.30
2019-05-11T13:49:10.673Z,3.13
2019-05-11T13:51:38.771Z,3.80
2019-05-11T13:54:05.180Z,3.67
2019-05-11T13:56:32.346Z,3.73
2019-05-11T13:59:10.662Z,3.27
2019-05-11T14:01:38.104Z,3.20
2019-05-11T14:04:04.925Z,3.40
2019-05-11T14:06:31.406Z,3.30
2019-05-11T14:08:58.735Z,3.43
2019-05-11T14:11:25.615Z,3.33
2019-05-11T14:13:57.896Z,3.67
2019-05-11T14:16:24.190Z,3.50
2019-05-11T14:18:50.915Z,4.60
2019-05-11T14:21:18.615Z,3.67
2019-05-11T14:23:45.116Z,4.00
2019-05-11T14:26:11.346Z,3.37
2019-05-11T14:28:37.917Z,3.90
2019-05-11T14:31:04.173Z,3.93
2019-05-11T14:33:30.502Z,3.83
2019-05-11T14:35:57.886Z,3.67
2019-05-11T14:38:24.286Z,3.93
2019-05-11T14:40:50.446Z,4.10
2019-05-11T14:43:18.785Z,3.80
2019-05-11T14:45:44.875Z,3.63
2019-05-11T14:48:22.974Z,4.20
2019-05-11T14:50:39.160Z,4.00
2019-05-11T14:53:05.373Z,3.70
2019-05-11T14:55:31.518Z,3.67
2019-05-11T14:57:57.794Z,4.13
2019-05-11T15:00:24.005Z,4.23
2019-05-11T15:02:50.270Z,3.73
2019-05-11T15:05:19.701Z,3.67
2019-05-11T15:07:47.961Z,3.67
2019-05-11T15:10:14.775Z,3.37
2019-05-11T15:12:41.074Z,3.37
2019-05-11T15:15:08.095Z,3.60
2019-05-11T15:17:34.286Z,3.80
2019-05-11T15:20:00.573Z,3.30
2019-05-11T15:22:28.672Z,3.33
2019-05-11T15:24:58.805Z,3.50
2019-05-11T15:27:25.082Z,3.43
2019-05-11T15:29:51.317Z,3.77
2019-05-11T15:32:18.042Z,3.40
2019-05-11T15:34:44.494Z,3.80
2019-05-11T15:37:10.899Z,3.47
2019-05-11T15:39:39.244Z,3.43
2019-05-11T15:42:09.807Z,3.83
2019-05-11T15:44:33.773Z,3.97
2019-05-11T15:46:59.927Z,4.13
2019-05-11T15:49:28.408Z,3.93
2019-05-11T15:51:54.719Z,3.67
2019-05-11T15:54:21.289Z,3.80
2019-05-11T15:56:47.417Z,4.00
2019-05-11T15:59:13.628Z,3.43
2019-05-11T16:01:41.129Z,3.90
2019-05-11T16:04:09.136Z,3.80
2019-05-11T16:06:35.874Z,3.13
2019-05-11T16:09:05.018Z,3.43
2019-05-11T16:11:31.171Z,3.30
2019-05-11T16:13:58.672Z,3.60
2019-05-11T16:16:25.121Z,3.70
2019-05-11T16:18:51.245Z,3.23
2019-05-11T16:21:18.180Z,3.57
2019-05-11T16:23:44.425Z,3.33
2019-05-11T16:26:10.633Z,3.73
2019-05-11T16:28:38.392Z,3.70
2019-05-11T16:31:04.842Z,3.53
2019-05-11T16:33:30.989Z,3.43
2019-05-11T16:35:58.040Z,3.57
2019-05-11T16:38:25.549Z,3.20
2019-05-11T16:40:51.792Z,3.70
2019-05-11T16:43:19.189Z,3.17
2019-05-11T16:45:45.684Z,3.20
2019-05-11T16:48:11.838Z,3.13
2019-05-11T16:50:38.508Z,3.03
2019-05-11T16:53:04.763Z,3.80
2019-05-11T16:55:31.242Z,3.77
2019-05-11T16:57:58.829Z,3.50
2019-05-11T17:00:25.269Z,4.93
2019-05-11T17:02:51.677Z,4.10
2019-05-11T17:05:25.719Z,3.47
2019-05-11T17:07:48.349Z,3.37
2019-05-11T17:10:17.658Z,3.43
2019-05-11T17:12:43.206Z,3.20
2019-05-11T17:15:10.357Z,2.80
2019-05-11T17:17:36.645Z,5.40
2019-05-11T17:20:04.707Z,4.03
2019-05-11T17:22:30.907Z,3.57
2019-05-11T17:24:58.962Z,3.20
2019-05-11T17:27:25.451Z,3.00
2019-05-11T17:29:51.589Z,3.10
2019-05-11T17:32:17.886Z,2.80
2019-05-11T17:34:44.067Z,2.77
2019-05-11T17:37:10.334Z,2.77
2019-05-11T17:39:38.477Z,2.83
2019-05-11T17:42:04.639Z,2.93
2019-05-11T17:44:31.176Z,3.00
2019-05-11T17:46:57.842Z,3.00
2019-05-11T17:49:24.112Z,3.10
2019-05-11T17:51:52.165Z,3.03
2019-05-11T17:54:18.578Z,3.57
2019-05-11T17:56:44.975Z,3.40
2019-05-11T17:59:11.187Z,3.37
2019-05-11T18:01:37.412Z,3.43
2019-05-11T18:04:04.370Z,3.63
2019-05-11T18:06:30.580Z,3.17
2019-05-11T18:08:58.466Z,3.47
2019-05-11T18:11:24.819Z,3.50
2019-05-11T18:13:51.065Z,3.53
2019-05-11T18:16:18.714Z,3.30
2019-05-11T18:18:45.063Z,3.00
2019-05-11T18:21:11.272Z,2.70
2019-05-11T18:23:38.747Z,2.87
2019-05-11T18:26:05.162Z,3.10
2019-05-11T18:28:31.420Z,3.40
2019-05-11T18:30:58.258Z,3.67
2019-05-11T18:33:27.537Z,3.30
2019-05-11T18:35:53.315Z,3.33
2019-05-11T18:38:19.829Z,3.33
2019-05-11T18:40:45.978Z,3.23
2019-05-11T18:43:12.186Z,3.00
2019-05-11T18:45:38.540Z,3.07
2019-05-11T18:48:08.040Z,3.63
2019-05-11T18:50:34.838Z,3.40
2019-05-11T18:53:09.217Z,3.50
2019-05-11T18:55:37.802Z,3.43
2019-05-11T18:58:04.016Z,3.33
2019-05-11T19:00:30.366Z,3.23
2019-05-11T19:02:57.971Z,3.30
2019-05-11T19:05:24.408Z,3.10
2019-05-11T19:07:50.606Z,2.97
2019-05-11T19:10:16.951Z,2.80
2019-05-11T19:12:43.217Z,3.07
2019-05-11T19:15:09.797Z,2.67
2019-05-11T19:17:38.282Z,2.80
2019-05-11T19:20:08.252Z,2.40
2019-05-11T19:22:34.668Z,2.27
2019-05-11T19:25:01.702Z,2.10
2019-05-11T19:27:28.848Z,2.40
2019-05-11T19:29:55.139Z,2.20
2019-05-11T19:32:21.327Z,2.20
2019-05-11T19:34:47.849Z,2.10
2019-05-11T19:37:14.211Z,2.10
2019-05-11T19:39:40.432Z,2.27
2019-05-11T19:42:29.190Z,2.30
2019-05-11T19:44:55.832Z,2.57
2019-05-11T19:47:25.164Z,2.23
2019-05-11T19:49:51.430Z,2.03
2019-05-11T19:52:17.892Z,1.80
2019-05-11T19:54:44.207Z,2.03
2019-05-11T19:57:10.346Z,1.80
2019-05-11T19:59:38.694Z,2.10
2019-05-11T20:02:04.613Z,1.90
2019-05-11T20:04:30.831Z,1.70
2019-05-11T20:06:58.252Z,1.70
2019-05-11T20:09:24.625Z,1.60
2019-05-11T20:11:50.765Z,2.00
2019-05-11T20:14:16.986Z,1.97
2019-05-11T20:16:43.436Z,2.30
2019-05-11T20:19:09.636Z,1.83
2019-05-11T20:21:38.003Z,2.20
2019-05-11T20:24:03.951Z,2.03
2019-05-11T20:26:30.087Z,1.97
2019-05-11T20:28:58.625Z,2.10
2019-05-11T20:31:24.365Z,1.77
2019-05-11T20:33:50.561Z,1.80
2019-05-11T20:36:17.811Z,2.10
2019-05-11T20:38:44.495Z,1.90
2019-05-11T20:41:10.631Z,2.10
2019-05-11T20:43:37.145Z,2.03
2019-05-11T20:46:03.306Z,1.97
2019-05-11T20:48:29.446Z,1.87
2019-05-11T20:50:58.637Z,1.83
2019-05-11T20:53:25.038Z,2.23
2019-05-11T20:55:51.611Z,2.20
2019-05-11T20:58:18.981Z,2.10
2019-05-11T21:00:45.403Z,1.97
2019-05-11T21:03:11.541Z,2.03
2019-05-11T21:05:38.063Z,2.07
2019-05-11T21:08:04.223Z,1.90
2019-05-11T21:10:30.423Z,2.13
2019-05-11T21:12:57.707Z,2.30
2019-05-11T21:15:24.108Z,2.13
2019-05-11T21:17:50.781Z,2.20
2019-05-11T21:20:18.105Z,2.50
2019-05-11T21:22:44.543Z,2.50
2019-05-11T21:25:13.522Z,2.07
2019-05-11T21:27:39.711Z,2.00
2019-05-11T21:30:09.097Z,2.13
2019-05-11T21:32:35.777Z,2.17
2019-05-11T21:35:02.399Z,2.37
2019-05-11T21:37:28.561Z,2.33
2019-05-11T21:39:54.914Z,2.33
2019-05-11T21:42:21.079Z,2.27
2019-05-11T21:44:47.303Z,2.00
2019-05-11T21:47:13.441Z,1.93
2019-05-11T21:49:39.846Z,2.23
2019-05-11T21:52:07.804Z,2.13
2019-05-11T21:54:34.103Z,2.47
2019-05-11T21:57:00.268Z,2.13
2019-05-11T21:59:27.669Z,2.20
2019-05-11T22:01:54.029Z,2.17
2019-05-11T22:04:20.257Z,2.23
2019-05-11T22:06:48.378Z,2.13
2019-05-11T22:09:14.508Z,1.97
2019-05-11T22:11:40.741Z,2.37
2019-05-11T22:14:08.292Z,2.50
2019-05-11T22:16:34.713Z,1.80
2019-05-11T22:19:00.840Z,1.80
2019-05-11T22:21:28.004Z,2.20
2019-05-11T22:23:54.307Z,1.77
2019-05-11T22:26:20.547Z,2.20
2019-05-11T22:28:48.156Z,1.90
2019-05-11T22:31:18.288Z,2.07
2019-05-11T22:33:44.697Z,2.47
2019-05-11T22:36:11.112Z,2.10
2019-05-11T22:38:38.735Z,2.33
2019-05-11T22:41:05.127Z,2.57
2019-05-11T22:43:31.289Z,2.10
2019-05-11T22:45:58.118Z,2.80
2019-05-11T22:48:24.391Z,2.13
2019-05-11T22:50:50.829Z,2.27
2019-05-11T22:53:18.843Z,2.40
2019-05-11T22:55:45.173Z,2.17
2019-05-11T22:58:11.308Z,2.03
2019-05-11T23:00:41.455Z,1.93
2019-05-11T23:03:10.586Z,2.07
2019-05-11T23:05:35.703Z,2.03
2019-05-11T23:08:03.622Z,1.80
2019-05-11T23:10:29.758Z,1.43
2019-05-11T23:12:56.255Z,1.87
2019-05-11T23:15:22.394Z,1.87
2019-05-11T23:17:48.672Z,1.50
2019-05-11T23:20:15.194Z,1.80
2019-05-11T23:22:56.677Z,1.90
2019-05-11T23:25:18.224Z,1.90
2019-05-11T23:27:44.467Z,1.60
2019-05-11T23:30:12.522Z,1.63
2019-05-11T23:32:38.730Z,1.70
2019-05-11T23:35:08.175Z,2.00
2019-05-11T23:37:33.589Z,1.47
2019-05-11T23:39:59.763Z,1.40
2019-05-11T23:42:25.957Z,1.63
2019-05-11T23:44:52.112Z,1.47
2019-05-11T23:47:20.275Z,1.43
2019-05-11T23:49:47.951Z,1.70
2019-05-11T23:52:14.335Z,1.27
2019-05-11T23:54:40.462Z,1.37
2019-05-11T23:57:09.301Z,1.33
2019-05-11T23:59:34.764Z,1.30
